Weather at Lester B. Pearson International Airport

Public forecast

Using degrees Celsius for public forecast. Weather courtesy of forecast.io.

Current aviation weather report (METAR) for Lester B. Pearson International Airport

Retrieved 2021/07/28 14:00 UTC (3 minutes ago):

CYYZ 281400Z 16006KT 120V200 15SM BKN018 22/17 A3009 RMK SC7 SLP189 DENSITY ALT 1300FT

Aviation forecast (TAF) for Lester B. Pearson International Airport

Retrieved 2021/07/28 12:45 UTC (1 hour ago):

TAF CYYZ 281142Z 2812/2918 05005KT P6SM SCT006 SCT015 TEMPO 2812/2813 BKN006 BKN015 FM281400 VRB03KT P6SM BKN030 TEMPO 2814/2816 BKN015 BKN030 BECMG 2816/2818 14008KT FM290200 VRB03KT P6SM SCT040 FM290800 VRB03KT 6SM BR BKN140 FM291100 18005KT P6SM -RA SCT020 OVC050 FM291300 11008KT 5SM -RA BR BKN006 OVC020 RMK NXT FCST BY 281500Z